Pagrindinis puslapis
METAR-TAF:

METAR-TAF

Oro uostai :

Guijangas, Kinija

platuma: 26-32-19N, ilguma: 106-48-03E, Aukštis: 1139 m

Dabartinis oras

Ataskaita buvo paskelbta 56 minutes, ne 18:00 UTC
Vėjas 2 kt iš Šiaurės
Temperatūra 5°C
Drėgmė 75%
Slėgis 1029 hPa
Matomumas 10 km arba daugiau
Apsiniaukę ne aukštis 4600 ft

METAR: ZUGY 171800Z 36001MPS 9999 OVC046 05/01 Q1029 NOSIG

Laikas: 02:56 (18:56 UTC)

Prognozė

Ataskaita buvo paskelbta 4 valandos ir 50 minutes, ne 14:06 UTC
Prognozė galioja nuo 17 metu 18 UTC su 18 metu 18 UTC
Vėjas 8 kt iš Pietų
Matomumas: 5000 m
Su prošvaistėmis ne aukštis 3300 ft
rūkana

TAF: ZUGY 171406Z 1718/1818 18004MPS 5000 BR BKN033 TX10/1807Z TN02/1722Z

Orai ataskaitas ir orų prognozės (METAR, TAF).

turimą stotys yra geltonos ir raudonos taškus žemėlapyje.

Perkelti pele per norėdami pamatyti stoties vardą.

Tada spustelėkite, norėdami matyti oro stebėjimo ir prognozės.

Norėdami pakeisti žemėlapį: spustelėkite ant žalios mygtukų su juodo kryžiaus žemyn,; žalią mygtuką su brūkšneliu, jei norite nutolinti; arba žalių rodyklių gretimoms žemėlapius.


METAR-TAF: